Huvudsida
METAR-TAF:

METAR-TAF

Flygplatser :

Dhahran, Saudiarabien

latitud: 26-16N, longitud: 050-09E, höjd: 26 m

Aktuellt väderrapport

Denna rapport gjordes för 7 minuter sedan, klockan 13:00 UTC
Vind 10 kt från nordost
Temperatur 28°C
Fuktighet 30%
Tryck 1013 hPa
Sikt 10 km eller mer
Spridda moln på en höjd av 3000 ft

METAR: OEDR 121300Z 05010KT 9999 SCT030 28/09 Q1013 NOSIG

Tid: 16:07 (13:07 UTC)

Väderprognos

Denna rapport gjordes för 3 timmar och 7 minuter sedan, klockan 10:00 UTC
Prognos gäller från 12 kl. 12 UTC till 13 kl. 18 UTC
Vind 10 kt från nordost
Sikt 10 km eller mer
Inga moln under 1 500 m eller inga cumulonimbus
Sannolikhet 30% :
Temporärt
från 12 kl. 12 UTC till 12 kl. 16 UTC
Sikt: 6000 m
Få moln på en höjd av 2000 ft, Cumulonimbus.
åska, regn
Blir
från 12 kl. 18 UTC till 12 kl. 20 UTC
Vind 3 kt varierande vindriktning

TAF: OEDR 121000Z 1212/1318 04010KT CAVOK PROB30 TEMPO 1212/1216 6000 TSRA FEW020CB BECMG 1218/1220 VRB03KT

Aktuella väderrapporter och prognoser från 4000 flygplatser (METAR- och TAF-rapporter).

De tillgängliga stationerna syns som gula och röda prickar på kartan.

För musen över prickarna för att se namnen på stationerna.

Klicka sedan för att få väderrapporter och prognoser.

För att ändra kartan: Klicka på de gröna knapparna med ett svart kors på för att zooma in; den gröna knappen med ett streck på för att zooma ut; eller på de gröna pilarna för angränsande kartor.


METAR-TAF: